CET,Max TemperatureF,Mean TemperatureF,Min TemperatureF,Max Dew PointF,MeanDew PointF,Min DewpointF,Max Humidity, Mean Humidity, Min Humidity, Max Sea Level PressureIn, Mean Sea Level PressureIn, Min Sea Level PressureIn, Max VisibilityMiles, Mean VisibilityMiles, Min VisibilityMiles, Max Wind SpeedMPH, Mean Wind SpeedMPH, Max Gust SpeedMPH,PrecipitationIn, CloudCover, Events, WindDirDegrees
2012-11-1,72,62,51,48,44,39,76,52,21,29.86,29.67,29.59,19,7,6,20,12,30,0.00,1,,255
2012-11-2,73,61,49,57,49,42,88,66,23,30.01,29.95,29.86,19,16,12,12,4,,0.00,,,228
2012-11-3,71,64,58,63,58,52,94,81,57,29.98,29.87,29.80,12,7,6,8,2,,0.00,3,,233
2012-11-4,77,70,62,70,64,59,100,86,61,29.83,29.75,29.68,12,7,6,18,5,,0.04,2,Rain,239
2012-11-5,70,66,62,59,45,28,68,48,14,30.06,29.95,29.74,19,7,6,23,15,34,0.02,2,Rain,314
2012-11-6,59,57,55,54,52,48,94,84,61,30.24,30.14,30.06,19,7,5,7,3,,0.12,5,Rain,306
2012-11-7,62,58,55,59,53,45,94,79,53,30.33,30.28,30.24,12,6,2,20,7,28,0.31,4,Rain,35
2012-11-8,64,59,54,57,53,48,88,75,49,30.28,30.17,30.06,12,6,6,14,7,,0.00,4,,18
2012-11-9,66,61,56,61,57,52,100,87,66,30.06,29.97,29.89,12,6,6,8,3,,0.02,5,,273
2012-11-10,70,62,53,57,52,45,100,75,32,29.90,29.84,29.77,19,6,6,14,6,,0.00,3,,249
2012-11-11,59,53,47,54,50,44,100,84,64,29.86,29.74,29.68,19,7,5,14,6,,0.16,5,Rain,326
2012-11-12,64,58,53,57,51,43,94,75,48,30.12,30.01,29.89,16,6,3,17,8,,0.20,4,Rain,12
2012-11-13,64,60,55,55,47,40,88,64,37,30.09,29.99,29.89,19,7,5,18,12,33,0.16,4,Rain,2
2012-11-14,72,64,55,61,57,53,100,84,48,30.06,29.98,29.89,12,7,6,15,4,,0.00,3,Rain,303
2012-11-15,68,64,59,63,60,55,100,87,65,30.12,30.07,30.04,12,7,6,15,5,,0.00,3,,51
2012-11-16,65,59,53,63,58,51,100,90,70,30.11,30.04,29.95,12,6,6,9,3,,0.00,5,,40
2012-11-17,68,64,59,63,60,55,100,88,60,29.96,29.82,29.74,16,6,6,7,4,,0.00,3,Rain,28
2012-11-18,68,62,57,61,57,53,100,91,58,29.92,29.79,29.71,12,6,4,13,2,,0.24,2,Rain-Thunderstorm,264
2012-11-19,69,62,54,57,54,50,100,80,47,30.06,30.00,29.92,19,7,6,9,4,,0.00,1,,221
2012-11-20,68,59,50,59,54,47,100,86,47,30.09,30.06,30.01,12,11,9,8,4,,0.00,,,213
2012-11-21,71,62,52,59,54,47,100,83,33,30.12,30.06,30.01,12,6,5,12,3,18,0.00,1,,287
2012-11-22,69,60,51,57,53,48,100,80,53,30.21,30.15,30.12,12,6,6,7,4,,0.00,2,,267
2012-11-23,67,58,50,57,52,46,100,86,53,30.22,30.18,30.15,16,7,6,9,5,,0.00,1,,261
2012-11-24,65,57,49,55,52,46,100,88,57,30.19,30.13,30.09,12,6,4,8,4,,0.00,1,Fog,261
2012-11-25,66,55,44,59,52,43,100,91,64,30.14,30.09,30.04,9,5,2,7,3,,0.00,4,Fog,234
2012-11-26,66,58,50,61,55,49,100,93,54,30.06,29.93,29.80,12,3,0,8,4,,0.01,4,Fog-Rain,243
2012-11-27,59,54,48,54,43,34,100,67,38,29.81,29.71,29.65,19,7,6,21,10,32,0.08,3,Rain,273
2012-11-28,59,52,45,36,32,28,66,44,20,29.71,29.65,29.62,19,7,6,30,14,47,0.00,1,,276
2012-11-29,59,54,48,34,32,28,58,44,22,29.77,29.73,29.68,19,7,6,26,17,38,0.00,1,,287
2012-11-30,58,48,39,37,33,29,75,53,24,29.77,29.67,29.59,19,7,6,15,9,26,0.00,1,,290